Time;durP1;ratioP1;P1;durP2;ratioP2;P2;SDS_P1;SDS_P2;PMS_P1;PMS_P2;Temp;Humidity;BMP_temperature;BMP_pressure;BME280_temperature;BME280_humidity;BME280_pressure;Samples;Min_cycle;Max_cycle;Signal;HPM_P1;HPM_P2
2022/10/24 00:01:21;;;;;;;9.45;1.02;;;17.30;99.90;;;;;;5046507;28;20025;-64
2022/10/24 00:03:48;;;;;;;5.50;0.98;;;17.30;99.90;;;;;;5047003;28;20039;-64
2022/10/24 00:06:14;;;;;;;6.63;1.15;;;17.20;99.90;;;;;;5044748;28;20436;-66
2022/10/24 00:08:42;;;;;;;7.97;1.20;;;17.20;99.90;;;;;;5045153;28;20033;-65
2022/10/24 00:11:14;;;;;;;9.27;1.27;;;17.20;99.90;;;;;;5047446;28;20033;-65
2022/10/24 00:13:40;;;;;;;9.50;1.10;;;17.10;99.90;;;;;;5045446;28;20033;-65
2022/10/24 00:16:07;;;;;;;3.65;1.00;;;17.10;99.90;;;;;;5046269;28;20440;-64
2022/10/24 00:18:32;;;;;;;6.80;1.00;;;17.10;99.90;;;;;;5046725;28;20041;-65
2022/10/24 00:20:58;;;;;;;8.38;1.38;;;17.00;99.90;;;;;;5047262;28;20386;-65
2022/10/24 00:23:24;;;;;;;6.10;1.10;;;17.00;99.90;;;;;;5045941;28;20397;-65
2022/10/24 00:25:49;;;;;;;9.45;1.13;;;16.90;99.90;;;;;;5046477;28;20037;-64
2022/10/24 00:28:16;;;;;;;8.57;1.20;;;16.80;99.90;;;;;;5045554;28;20029;-67
2022/10/24 00:30:42;;;;;;;4.93;1.00;;;16.60;99.90;;;;;;5046198;28;20040;-64
2022/10/24 00:33:07;;;;;;;10.65;1.00;;;16.60;99.90;;;;;;5043724;28;20029;-67
2022/10/24 00:35:33;;;;;;;6.05;1.00;;;16.50;99.90;;;;;;5047351;28;20136;-64
2022/10/24 00:37:59;;;;;;;7.40;1.65;;;16.50;99.90;;;;;;5049582;28;20073;-67
2022/10/24 00:40:24;;;;;;;8.18;1.23;;;16.40;99.90;;;;;;5050667;28;20033;-67
2022/10/24 00:42:50;;;;;;;13.80;1.38;;;16.40;99.90;;;;;;5046842;28;20036;-64
2022/10/24 00:45:40;;;;;;;7.05;1.02;;;16.20;99.90;;;;;;5047988;28;20083;-67
2022/10/24 00:48:15;;;;;;;3.45;0.95;;;16.10;99.90;;;;;;5048538;28;20075;-66
2022/10/24 00:50:41;;;;;;;11.30;1.15;;;16.00;99.90;;;;;;5045291;28;20029;-65
2022/10/24 00:53:07;;;;;;;4.38;1.00;;;15.90;99.90;;;;;;5050453;28;20025;-65
2022/10/24 00:55:33;;;;;;;9.55;1.50;;;15.80;99.90;;;;;;5042312;28;20428;-66
2022/10/24 00:58:00;;;;;;;10.80;1.38;;;15.80;99.90;;;;;;5050116;28;20090;-65
2022/10/24 01:00:30;;;;;;;9.70;2.15;;;15.70;99.90;;;;;;5049549;28;20147;-65
2022/10/24 01:02:56;;;;;;;9.18;1.30;;;15.70;99.90;;;;;;5047323;28;20025;-64
2022/10/24 01:05:26;;;;;;;10.52;2.00;;;15.90;99.90;;;;;;5049616;28;20044;-66
2022/10/24 01:08:09;;;;;;;6.88;1.30;;;16.10;99.90;;;;;;5047154;28;20037;-67
2022/10/24 01:10:40;;;;;;;9.57;1.80;;;16.20;99.90;;;;;;5042830;28;20029;-64
2022/10/24 01:13:27;;;;;;;10.82;2.45;;;16.30;99.90;;;;;;5049519;28;20041;-64
2022/10/24 01:16:04;;;;;;;5.65;1.20;;;16.30;99.90;;;;;;5049803;28;20036;-65
2022/10/24 01:18:31;;;;;;;14.73;1.42;;;16.30;99.90;;;;;;5046595;28;20139;-64
2022/10/24 01:21:12;;;;;;;4.53;1.40;;;16.40;99.90;;;;;;5049758;28;20071;-66
2022/10/24 01:23:49;;;;;;;;;;;16.50;99.90;;;;;;5049319;28;20052;-66
2022/10/24 01:26:50;;;;;;;9.50;1.27;;;16.60;99.90;;;;;;5049629;28;20003;-65
2022/10/24 01:29:45;;;;;;;7.22;1.13;;;16.50;99.90;;;;;;5049499;28;20024;-65
2022/10/24 01:32:20;;;;;;;10.30;1.33;;;16.50;99.90;;;;;;5048597;28;20028;-65
2022/10/24 01:35:13;;;;;;;10.52;1.55;;;16.40;99.90;;;;;;5048623;28;20090;-66
2022/10/24 01:37:43;;;;;;;4.43;1.23;;;16.30;99.90;;;;;;5048389;28;20158;-64
2022/10/24 01:40:17;;;;;;;;;;;16.30;99.90;;;;;;5051373;28;20037;-68
2022/10/24 01:42:44;;;;;;;9.20;1.63;;;16.30;99.90;;;;;;5045462;28;20011;-66
2022/10/24 01:45:17;;;;;;;8.70;1.20;;;16.20;99.90;;;;;;5049384;28;20055;-65
2022/10/24 01:47:49;;;;;;;7.30;1.30;;;16.10;99.90;;;;;;5046729;28;20075;-64
2022/10/24 01:50:18;;;;;;;15.10;1.73;;;15.90;99.90;;;;;;5048714;28;20473;-65
2022/10/24 01:52:45;;;;;;;5.13;1.20;;;15.70;99.90;;;;;;5039495;28;20041;-65
2022/10/24 01:55:11;;;;;;;5.68;1.00;;;15.60;99.90;;;;;;5049894;28;20048;-66
2022/10/24 01:57:38;;;;;;;11.20;1.17;;;15.70;99.90;;;;;;5048585;28;20041;-66
2022/10/24 02:00:06;;;;;;;5.68;1.13;;;15.80;99.90;;;;;;5050445;28;20067;-66
2022/10/24 02:02:59;;;;;;;9.98;1.35;;;15.70;99.90;;;;;;5047688;28;20120;-66
2022/10/24 02:05:33;;;;;;;4.82;1.15;;;15.70;99.90;;;;;;5037062;28;20048;-67
2022/10/24 02:08:04;;;;;;;7.85;1.20;;;15.60;99.90;;;;;;5041011;28;20087;-64
2022/10/24 02:10:35;;;;;;;13.40;1.85;;;15.60;99.90;;;;;;5048813;28;20032;-66
2022/10/24 02:13:06;;;;;;;5.82;1.40;;;15.50;99.90;;;;;;5048143;28;20406;-65
2022/10/24 02:15:37;;;;;;;4.80;1.30;;;15.50;99.90;;;;;;5048808;28;20114;-67
2022/10/24 02:18:03;;;;;;;10.27;1.85;;;15.40;99.90;;;;;;5048244;28;20402;-64
2022/10/24 02:20:45;;;;;;;9.35;1.50;;;15.30;99.90;;;;;;5043423;28;20037;-67
2022/10/24 02:23:42;;;;;;;11.68;2.20;;;15.30;99.90;;;;;;5046112;28;20043;-65
2022/10/24 02:26:13;;;;;;;5.90;1.10;;;15.30;99.90;;;;;;5047595;28;20053;-66
2022/10/24 02:28:44;;;;;;;10.40;1.65;;;15.20;99.90;;;;;;5048953;28;20107;-67
2022/10/24 02:31:21;;;;;;;8.02;1.30;;;15.20;99.90;;;;;;5051838;28;20092;-65
2022/10/24 02:33:50;;;;;;;13.52;2.33;;;15.20;99.90;;;;;;5043179;28;20174;-65
2022/10/24 02:36:20;;;;;;;5.93;1.23;;;15.20;99.90;;;;;;5048318;28;20034;-66
2022/10/24 02:38:49;;;;;;;9.68;1.60;;;15.20;99.90;;;;;;5046806;28;20470;-66
2022/10/24 02:41:20;;;;;;;8.77;1.50;;;15.10;99.90;;;;;;5048843;28;20389;-65
2022/10/24 02:43:48;;;;;;;6.13;1.10;;;15.10;99.90;;;;;;5046951;28;20057;-64
2022/10/24 02:46:15;;;;;;;8.38;2.22;;;15.10;99.90;;;;;;5049805;28;20109;-65
2022/10/24 02:48:48;;;;;;;5.95;1.52;;;15.10;99.90;;;;;;5047207;28;20039;-66
2022/10/24 02:51:15;;;;;;;10.38;1.35;;;15.20;99.90;;;;;;5046471;28;20037;-66
2022/10/24 02:53:42;;;;;;;13.20;2.38;;;15.10;99.90;;;;;;5027139;28;20056;-64
2022/10/24 02:56:08;;;;;;;11.15;1.65;;;15.10;99.90;;;;;;5037530;28;20021;-65
2022/10/24 02:58:33;;;;;;;7.45;1.55;;;15.00;99.90;;;;;;5047850;28;20104;-65
2022/10/24 03:00:59;;;;;;;7.10;1.38;;;15.10;99.90;;;;;;5046629;28;20036;-66
2022/10/24 03:03:25;;;;;;;4.30;1.30;;;15.00;99.90;;;;;;5042775;28;20044;-67
2022/10/24 03:05:50;;;;;;;5.13;1.35;;;15.00;99.90;;;;;;5046779;28;20478;-65
2022/10/24 03:08:16;;;;;;;7.43;1.52;;;15.00;99.90;;;;;;5047033;28;20126;-66
2022/10/24 03:10:42;;;;;;;7.60;1.73;;;15.00;99.90;;;;;;5047969;28;20433;-65
2022/10/24 03:13:07;;;;;;;14.45;2.10;;;14.90;99.90;;;;;;5049782;28;20104;-65
2022/10/24 03:15:33;;;;;;;16.65;2.53;;;15.00;99.90;;;;;;5043886;28;20036;-66
2022/10/24 03:17:58;;;;;;;11.50;2.20;;;15.40;99.90;;;;;;5041206;28;20036;-64
2022/10/24 03:20:24;;;;;;;11.15;2.15;;;15.60;99.90;;;;;;5046254;28;20036;-67
2022/10/24 03:22:50;;;;;;;8.10;2.47;;;15.70;99.90;;;;;;5048233;28;20036;-64
2022/10/24 03:25:16;;;;;;;10.70;2.30;;;15.70;99.90;;;;;;5048743;28;20102;-66
2022/10/24 03:27:42;;;;;;;11.75;2.45;;;15.70;99.90;;;;;;5051769;28;20035;-63
2022/10/24 03:30:09;;;;;;;12.13;2.30;;;16.00;99.90;;;;;;5046819;28;20108;-65
2022/10/24 03:32:34;;;;;;;15.40;2.97;;;16.10;99.90;;;;;;5047730;28;20083;-66
2022/10/24 03:35:01;;;;;;;14.73;2.88;;;16.10;99.90;;;;;;5048701;28;20369;-66
2022/10/24 03:37:27;;;;;;;12.23;2.58;;;16.20;99.90;;;;;;5048294;28;20059;-68
2022/10/24 03:39:53;;;;;;;21.58;2.72;;;16.30;99.90;;;;;;5048284;28;20040;-64
2022/10/24 03:42:18;;;;;;;11.43;2.72;;;16.20;99.90;;;;;;5045218;28;20033;-65
2022/10/24 03:44:44;;;;;;;19.73;2.90;;;16.20;99.90;;;;;;5051222;28;20574;-65
2022/10/24 03:47:10;;;;;;;11.02;2.58;;;16.10;99.90;;;;;;5048533;28;20104;-65
2022/10/24 03:49:36;;;;;;;12.23;2.90;;;16.10;99.90;;;;;;5046770;28;20028;-65
2022/10/24 03:52:01;;;;;;;18.58;2.60;;;16.10;99.90;;;;;;5042657;28;20107;-64
2022/10/24 03:54:27;;;;;;;8.10;2.60;;;16.00;99.90;;;;;;5043493;28;20099;-68
2022/10/24 03:56:52;;;;;;;12.27;2.80;;;15.90;99.90;;;;;;5047642;28;20036;-69
2022/10/24 03:59:18;;;;;;;20.05;3.40;;;15.80;99.90;;;;;;5047911;28;20043;-65
2022/10/24 04:01:44;;;;;;;7.38;2.40;;;15.70;99.90;;;;;;5033780;28;20828;-66
2022/10/24 04:04:09;;;;;;;15.52;3.17;;;15.60;99.90;;;;;;5044394;28;20033;-65
2022/10/24 04:06:35;;;;;;;20.25;3.83;;;15.50;99.90;;;;;;5045495;28;20109;-65
2022/10/24 04:09:04;;;;;;;10.98;2.90;;;15.50;99.90;;;;;;5047992;28;20068;-66
2022/10/24 04:11:30;;;;;;;12.15;2.45;;;15.50;99.90;;;;;;5049571;28;20033;-66
2022/10/24 04:13:55;;;;;;;13.07;3.72;;;15.60;99.90;;;;;;5051577;28;20044;-64
2022/10/24 04:16:22;;;;;;;13.50;2.85;;;15.70;99.90;;;;;;5050665;28;20048;-64
2022/10/24 04:18:48;;;;;;;10.02;2.20;;;15.90;99.90;;;;;;5051251;28;20029;-64
2022/10/24 04:21:14;;;;;;;9.93;2.35;;;16.00;99.90;;;;;;5047073;28;20033;-65
2022/10/24 04:23:41;;;;;;;12.65;2.20;;;16.10;99.90;;;;;;5049628;28;20094;-63
2022/10/24 04:26:08;;;;;;;9.07;2.15;;;16.10;99.90;;;;;;5052318;28;20035;-65
2022/10/24 04:28:34;;;;;;;15.50;2.28;;;16.20;99.90;;;;;;5048365;28;20470;-65
2022/10/24 04:30:59;;;;;;;15.18;2.28;;;16.20;99.90;;;;;;5050699;28;20035;-67
2022/10/24 04:33:25;;;;;;;20.75;2.45;;;16.30;99.90;;;;;;5051145;28;20419;-65
2022/10/24 04:35:51;;;;;;;16.77;2.42;;;16.20;99.90;;;;;;5049907;28;20738;-65
2022/10/24 04:38:17;;;;;;;11.75;2.55;;;16.20;99.90;;;;;;5049763;28;20536;-65
2022/10/24 04:40:51;;;;;;;15.48;2.60;;;16.20;99.90;;;;;;5050883;28;20121;-63
2022/10/24 04:43:17;;;;;;;17.88;2.45;;;16.20;99.90;;;;;;5049606;28;20037;-65
2022/10/24 04:45:43;;;;;;;12.30;2.28;;;16.20;99.90;;;;;;5050996;28;20079;-65
2022/10/24 04:48:09;;;;;;;9.23;2.00;;;16.10;99.90;;;;;;5050061;28;20385;-66
2022/10/24 04:50:35;;;;;;;12.27;2.38;;;16.10;99.90;;;;;;5050594;28;20531;-66
2022/10/24 04:53:01;;;;;;;17.10;2.35;;;16.00;99.90;;;;;;5049245;28;20028;-67
2022/10/24 04:55:27;;;;;;;11.65;2.50;;;16.10;99.90;;;;;;5050808;28;20059;-64
2022/10/24 04:57:53;;;;;;;10.30;2.33;;;16.10;99.90;;;;;;5049577;28;20094;-66
2022/10/24 05:00:18;;;;;;;10.50;2.38;;;16.10;99.90;;;;;;5049885;28;20300;-65
2022/10/24 05:02:44;;;;;;;13.68;2.28;;;16.00;99.90;;;;;;5050916;28;20040;-65
2022/10/24 05:05:10;;;;;;;9.43;2.15;;;15.90;99.90;;;;;;5050932;28;20115;-64
2022/10/24 05:07:35;;;;;;;15.60;2.35;;;15.90;99.90;;;;;;5050206;28;20083;-67
2022/10/24 05:10:03;;;;;;;11.88;2.30;;;16.00;99.90;;;;;;5051047;28;20060;-66
2022/10/24 05:12:28;;;;;;;11.40;2.00;;;16.00;99.90;;;;;;5048772;28;20590;-66
2022/10/24 05:14:54;;;;;;;13.13;2.67;;;16.00;99.90;;;;;;5050151;28;20079;-64
2022/10/24 05:17:20;;;;;;;12.27;1.95;;;16.00;99.90;;;;;;5050089;28;20036;-63
2022/10/24 05:19:45;;;;;;;11.65;2.00;;;16.00;99.90;;;;;;5049133;28;20033;-66
2022/10/24 05:22:11;;;;;;;12.38;2.35;;;16.00;99.90;;;;;;5049549;28;20587;-64
2022/10/24 05:24:37;;;;;;;8.35;2.10;;;15.90;99.90;;;;;;5047896;28;20041;-66
2022/10/24 05:27:13;;;;;;;9.73;2.35;;;16.00;99.90;;;;;;5050484;28;20094;-65
2022/10/24 05:29:39;;;;;;;9.63;2.08;;;15.90;99.90;;;;;;5049200;28;20041;-65
2022/10/24 05:32:05;;;;;;;13.07;2.50;;;15.90;99.90;;;;;;5050888;28;20040;-66
2022/10/24 05:34:30;;;;;;;10.90;2.38;;;15.90;99.90;;;;;;5050123;28;20107;-64
2022/10/24 05:36:56;;;;;;;8.93;2.20;;;16.00;99.90;;;;;;5050200;28;20747;-66
2022/10/24 05:39:21;;;;;;;10.85;2.63;;;16.00;99.90;;;;;;5048616;28;20037;-64
2022/10/24 05:41:47;;;;;;;15.30;2.17;;;16.00;99.90;;;;;;5050086;28;20067;-65
2022/10/24 05:44:13;;;;;;;8.90;1.92;;;16.00;99.90;;;;;;5047910;28;20425;-65
2022/10/24 05:46:39;;;;;;;11.63;1.98;;;16.30;99.90;;;;;;5048691;28;20025;-66
2022/10/24 05:49:06;;;;;;;12.38;2.22;;;16.30;99.90;;;;;;5048523;28;20033;-65
2022/10/24 05:51:32;;;;;;;15.30;2.13;;;16.20;99.90;;;;;;5049443;28;20028;-67
2022/10/24 05:53:58;;;;;;;13.73;2.50;;;16.20;99.90;;;;;;5049803;28;20025;-65
2022/10/24 05:56:24;;;;;;;13.63;2.15;;;16.20;99.90;;;;;;5049559;28;20044;-66
2022/10/24 05:58:50;;;;;;;17.45;2.00;;;16.20;99.90;;;;;;5048070;28;20458;-64
2022/10/24 06:01:16;;;;;;;18.02;2.13;;;16.10;99.90;;;;;;5048923;28;20078;-64
2022/10/24 06:03:42;;;;;;;15.13;2.10;;;16.10;99.90;;;;;;5048996;28;20040;-66
2022/10/24 06:06:09;;;;;;;9.10;2.20;;;16.10;99.90;;;;;;5049555;28;20029;-68
2022/10/24 06:08:36;;;;;;;6.93;2.08;;;16.10;99.90;;;;;;5048219;28;20036;-66
2022/10/24 06:11:02;;;;;;;15.07;1.83;;;16.10;99.90;;;;;;5049166;28;20025;-67
2022/10/24 06:13:28;;;;;;;24.05;2.30;;;16.10;99.90;;;;;;5049204;28;20033;-66
2022/10/24 06:15:54;;;;;;;9.30;1.95;;;16.10;99.90;;;;;;5046420;28;20599;-64
2022/10/24 06:18:19;;;;;;;10.68;1.98;;;16.10;99.90;;;;;;5050179;28;20040;-66
2022/10/24 06:20:45;;;;;;;11.23;1.90;;;16.10;99.90;;;;;;5048708;28;20029;-65
2022/10/24 06:23:11;;;;;;;11.05;2.17;;;16.10;99.90;;;;;;5049755;28;20126;-66
2022/10/24 06:25:38;;;;;;;14.02;2.92;;;16.10;99.90;;;;;;5048993;28;20496;-66
2022/10/24 06:28:06;;;;;;;5.53;1.58;;;16.10;99.90;;;;;;5049179;28;20051;-67
2022/10/24 06:30:32;;;;;;;13.60;1.73;;;16.10;99.90;;;;;;5046875;28;20477;-66
2022/10/24 06:32:58;;;;;;;12.68;2.20;;;16.10;99.90;;;;;;5032485;28;20036;-67
2022/10/24 06:35:24;;;;;;;13.57;1.80;;;16.10;99.90;;;;;;5043665;28;20033;-64
2022/10/24 06:37:49;;;;;;;7.65;2.03;;;16.10;99.90;;;;;;5048059;28;20048;-64
2022/10/24 06:40:16;;;;;;;12.32;2.13;;;16.10;99.90;;;;;;5049185;28;20032;-63
2022/10/24 06:42:42;;;;;;;13.18;1.70;;;16.20;99.90;;;;;;5048216;28;20041;-65
2022/10/24 06:45:08;;;;;;;17.02;2.67;;;16.20;99.90;;;;;;5048056;28;20397;-66
2022/10/24 06:47:33;;;;;;;14.63;2.28;;;16.10;99.90;;;;;;5046483;28;20478;-66
2022/10/24 06:49:59;;;;;;;11.35;2.28;;;16.10;99.90;;;;;;5047343;28;20017;-66
2022/10/24 06:52:24;;;;;;;12.82;2.20;;;16.10;99.90;;;;;;5049263;28;20486;-63
2022/10/24 06:54:50;;;;;;;8.05;1.98;;;16.10;99.90;;;;;;5046477;28;20025;-65
2022/10/24 06:57:16;;;;;;;13.35;2.78;;;16.10;99.90;;;;;;5049181;28;20079;-65
2022/10/24 06:59:43;;;;;;;10.05;1.92;;;16.10;99.90;;;;;;5047478;28;20132;-65
2022/10/24 07:02:12;;;;;;;14.13;2.10;;;16.10;99.90;;;;;;5045607;28;20024;-65
2022/10/24 07:04:38;;;;;;;12.40;2.50;;;16.20;99.90;;;;;;5043285;28;20029;-67
2022/10/24 07:07:04;;;;;;;11.98;2.15;;;16.20;99.90;;;;;;5048922;28;20060;-66
2022/10/24 07:09:30;;;;;;;14.30;2.45;;;16.10;99.90;;;;;;5041506;28;20056;-64
2022/10/24 07:11:55;;;;;;;11.15;2.20;;;16.10;99.90;;;;;;5046639;28;20388;-63
2022/10/24 07:14:21;;;;;;;17.42;2.60;;;16.00;99.90;;;;;;5046966;28;20043;-64
2022/10/24 07:16:47;;;;;;;10.57;2.50;;;16.00;99.90;;;;;;5047457;28;20068;-66
2022/10/24 07:19:12;;;;;;;9.43;2.22;;;16.00;99.90;;;;;;5044937;28;20143;-66
2022/10/24 07:21:38;;;;;;;9.07;2.58;;;16.00;99.90;;;;;;5048655;28;20024;-65
2022/10/24 07:24:04;;;;;;;11.82;2.45;;;16.00;99.90;;;;;;5049042;28;20071;-64
2022/10/24 07:26:30;;;;;;;9.75;2.45;;;15.90;99.90;;;;;;5048843;28;20025;-65
2022/10/24 07:28:59;;;;;;;11.77;2.83;;;15.80;99.90;;;;;;5046391;28;20663;-64
2022/10/24 07:31:28;;;;;;;10.43;2.47;;;15.60;99.90;;;;;;5045696;28;20061;-64
2022/10/24 07:33:54;;;;;;;8.48;2.17;;;15.50;99.90;;;;;;5046725;28;20044;-63
2022/10/24 07:36:22;;;;;;;18.10;2.63;;;15.40;99.90;;;;;;5045394;28;20405;-66
2022/10/24 07:38:50;;;;;;;16.48;3.10;;;15.40;99.90;;;;;;5045082;28;20025;-68
2022/10/24 07:41:15;;;;;;;12.60;3.55;;;15.30;99.90;;;;;;5046546;28;20025;-70
2022/10/24 07:43:42;;;;;;;17.20;4.47;;;15.20;99.90;;;;;;5047826;28;20136;-71
2022/10/24 07:46:13;;;;;;;19.05;5.35;;;15.20;99.90;;;;;;5045350;28;20460;-71
2022/10/24 07:48:41;;;;;;;16.45;4.57;;;15.20;99.90;;;;;;5046740;28;20024;-71
2022/10/24 07:51:08;;;;;;;13.25;3.65;;;15.30;99.90;;;;;;5047198;28;20031;-71
2022/10/24 07:53:35;;;;;;;14.07;3.83;;;15.30;99.90;;;;;;5046353;28;20043;-70
2022/10/24 07:56:00;;;;;;;12.50;3.33;;;15.40;99.90;;;;;;5046823;28;20025;-70
2022/10/24 07:58:27;;;;;;;9.25;3.05;;;15.40;99.90;;;;;;5048466;28;20111;-70
2022/10/24 08:00:53;;;;;;;14.55;2.83;;;15.40;99.90;;;;;;5045811;28;20033;-69
2022/10/24 08:03:18;;;;;;;14.13;3.20;;;15.20;99.90;;;;;;5048531;28;20041;-70
2022/10/24 08:05:45;;;;;;;13.07;2.78;;;15.30;99.90;;;;;;5044415;28;20120;-71
2022/10/24 08:08:11;;;;;;;16.05;2.95;;;15.30;99.90;;;;;;5047271;28;20056;-70
2022/10/24 08:10:37;;;;;;;15.30;2.85;;;15.30;99.90;;;;;;5047392;28;20072;-71
2022/10/24 08:13:03;;;;;;;12.55;2.80;;;15.30;99.90;;;;;;5047305;28;20064;-70
2022/10/24 08:15:28;;;;;;;22.70;3.20;;;15.40;99.90;;;;;;5041195;28;20069;-71
2022/10/24 08:17:54;;;;;;;19.58;3.67;;;15.30;99.90;;;;;;5042720;28;20083;-70
2022/10/24 08:20:20;;;;;;;20.52;3.85;;;15.20;99.90;;;;;;5048491;28;20029;-71
2022/10/24 08:22:46;;;;;;;14.32;3.38;;;15.10;99.90;;;;;;5047628;28;20478;-69
2022/10/24 08:25:13;;;;;;;18.17;3.58;;;15.00;99.90;;;;;;5045748;28;20067;-71
2022/10/24 08:27:40;;;;;;;16.77;5.90;;;15.00;99.90;;;;;;5047628;28;20017;-72
2022/10/24 08:30:06;;;;;;;15.07;5.55;;;15.00;99.90;;;;;;5046126;28;20052;-71
2022/10/24 08:32:33;;;;;;;13.68;4.28;;;15.00;99.90;;;;;;5047354;28;20036;-71
2022/10/24 08:34:59;;;;;;;13.88;4.70;;;15.00;99.90;;;;;;5045874;28;20052;-70
2022/10/24 08:37:25;;;;;;;12.05;3.33;;;15.00;99.90;;;;;;5048004;28;20059;-72
2022/10/24 08:39:54;;;;;;;11.27;3.05;;;14.90;99.90;;;;;;5045136;28;20029;-71
2022/10/24 08:42:22;;;;;;;11.75;3.08;;;14.80;99.90;;;;;;5045305;28;20040;-71
2022/10/24 08:44:48;;;;;;;13.13;2.70;;;14.80;99.90;;;;;;5046856;28;20408;-72
2022/10/24 08:47:33;;;;;;;12.68;2.47;;;14.80;99.90;;;;;;5046780;28;20037;-72
2022/10/24 08:50:10;;;;;;;12.20;2.55;;;14.70;99.90;;;;;;5027331;28;20086;-71
2022/10/24 08:52:45;;;;;;;12.32;3.13;;;14.80;99.90;;;;;;5044536;28;20033;-72
2022/10/24 08:55:16;;;;;;;10.95;2.63;;;14.80;99.90;;;;;;5046513;28;20059;-71
2022/10/24 08:57:46;;;;;;;9.73;2.55;;;14.80;99.90;;;;;;5048748;28;20033;-71
2022/10/24 09:00:24;;;;;;;11.83;2.90;;;14.80;99.90;;;;;;5046272;28;20051;-70
2022/10/24 09:03:17;;;;;;;11.57;2.70;;;14.80;99.90;;;;;;5050215;28;20107;-71
2022/10/24 09:05:52;;;;;;;10.88;3.92;;;14.90;99.90;;;;;;5047728;28;20047;-70
2022/10/24 09:08:31;;;;;;;13.75;3.88;;;14.90;99.90;;;;;;5050117;28;20064;-71
2022/10/24 09:11:05;;;;;;;11.73;4.28;;;14.80;99.90;;;;;;5040817;28;20061;-69
2022/10/24 09:13:34;;;;;;;13.73;3.33;;;14.80;99.90;;;;;;5047474;28;20045;-70
2022/10/24 09:16:00;;;;;;;16.20;2.85;;;14.80;99.90;;;;;;5049671;28;20266;-70
2022/10/24 09:18:39;;;;;;;8.80;2.53;;;14.70;99.90;;;;;;5051190;28;20032;-71
2022/10/24 09:21:07;;;;;;;14.13;2.92;;;14.70;99.90;;;;;;5048617;28;20618;-70
2022/10/24 09:23:37;;;;;;;14.35;2.92;;;14.70;99.90;;;;;;5051169;28;20048;-71
2022/10/24 09:26:06;;;;;;;8.38;2.38;;;14.70;99.90;;;;;;5049308;28;20033;-71
2022/10/24 09:28:36;;;;;;;9.55;2.13;;;14.70;99.90;;;;;;5041439;28;20120;-70
2022/10/24 09:31:12;;;;;;;10.40;2.67;;;14.80;99.90;;;;;;5044015;28;20135;-71
2022/10/24 09:33:41;;;;;;;7.50;2.28;;;14.80;99.90;;;;;;5050748;28;20264;-70
2022/10/24 09:36:10;;;;;;;10.90;2.53;;;14.80;99.90;;;;;;5048469;28;20086;-71
2022/10/24 09:38:38;;;;;;;12.43;2.88;;;14.90;99.90;;;;;;5050736;28;20037;-73
2022/10/24 09:41:22;;;;;;;9.75;2.10;;;15.00;99.90;;;;;;5049053;28;20067;-71
2022/10/24 09:43:59;;;;;;;11.85;2.28;;;15.10;99.90;;;;;;5043100;28;20049;-70
2022/10/24 09:46:35;;;;;;;10.68;1.95;;;15.30;99.90;;;;;;5049848;28;20033;-72
2022/10/24 09:49:22;;;;;;;10.35;2.47;;;15.30;99.90;;;;;;5048078;28;20124;-72
2022/10/24 09:52:18;;;;;;;12.38;2.38;;;15.30;99.90;;;;;;5050593;28;20370;-71
2022/10/24 09:54:46;;;;;;;12.38;2.30;;;15.30;99.90;;;;;;5049496;28;20029;-71
2022/10/24 09:57:15;;;;;;;9.05;2.63;;;15.30;99.90;;;;;;5048990;28;20075;-69
2022/10/24 09:59:44;;;;;;;9.60;2.77;;;15.30;99.90;;;;;;5049842;28;20029;-70
2022/10/24 10:02:09;;;;;;;14.00;2.10;;;15.30;99.90;;;;;;5040722;28;20967;-70
2022/10/24 10:04:40;;;;;;;10.38;2.08;;;15.40;99.90;;;;;;5049882;28;20033;-71
2022/10/24 10:07:12;;;;;;;11.30;2.45;;;15.50;99.90;;;;;;5048340;28;20046;-71
2022/10/24 10:09:45;;;;;;;7.55;2.42;;;15.50;99.90;;;;;;5048424;28;20041;-71
2022/10/24 10:12:33;;;;;;;9.25;2.10;;;15.50;99.90;;;;;;5049744;28;20914;-70
2022/10/24 10:15:16;;;;;;;6.13;2.08;;;15.50;99.90;;;;;;5050831;28;20037;-72
2022/10/24 10:17:53;;;;;;;11.75;2.13;;;15.50;99.90;;;;;;5048414;28;20044;-71
2022/10/24 10:20:24;;;;;;;11.98;2.47;;;15.50;99.90;;;;;;5048071;28;20041;-71
2022/10/24 10:22:49;;;;;;;13.20;2.35;;;15.40;99.90;;;;;;5048647;28;20099;-72
2022/10/24 10:25:31;;;;;;;11.63;2.20;;;15.40;99.90;;;;;;5038622;28;20474;-71
2022/10/24 10:27:57;;;;;;;8.23;2.22;;;15.40;99.90;;;;;;5043868;28;20505;-71
2022/10/24 10:30:23;;;;;;;10.18;2.50;;;15.40;99.90;;;;;;5049149;28;20025;-71
2022/10/24 10:33:05;;;;;;;10.95;2.95;;;15.40;99.90;;;;;;5047256;28;20025;-71
2022/10/24 10:36:03;;;;;;;6.53;2.17;;;15.40;99.90;;;;;;5049368;28;20029;-72
2022/10/24 10:38:56;;;;;;;10.23;2.35;;;15.60;99.90;;;;;;5043747;28;20448;-69
2022/10/24 10:41:33;;;;;;;9.30;2.20;;;15.60;99.90;;;;;;5048268;28;20033;-70
2022/10/24 10:44:47;;;;;;;14.50;1.95;;;15.80;99.90;;;;;;5047281;28;20061;-69
2022/10/24 10:47:35;;;;;;;11.65;1.63;;;16.00;99.90;;;;;;4986361;28;20030;-70
2022/10/24 10:50:10;;;;;;;9.57;2.03;;;16.10;99.90;;;;;;5044861;28;20359;-69
2022/10/24 10:52:49;;;;;;;6.28;1.80;;;16.20;99.90;;;;;;5048030;28;20029;-71
2022/10/24 10:55:47;;;;;;;9.10;1.75;;;16.10;99.90;;;;;;5048915;28;20071;-68
2022/10/24 10:58:50;;;;;;;9.48;1.58;;;16.00;99.90;;;;;;5043394;28;20044;-69
2022/10/24 11:01:24;;;;;;;7.15;1.40;;;16.10;99.90;;;;;;5047580;28;20033;-71
2022/10/24 11:04:16;;;;;;;6.43;1.50;;;16.00;99.90;;;;;;5048815;28;20495;-70
2022/10/24 11:07:16;;;;;;;6.43;2.10;;;16.00;99.90;;;;;;5047798;28;20739;-70
2022/10/24 11:09:49;;;;;;;6.05;1.40;;;16.00;99.90;;;;;;5014519;28;20052;-71
2022/10/24 11:12:34;;;;;;;8.25;1.65;;;16.00;99.90;;;;;;5046504;28;20041;-68
2022/10/24 11:15:06;;;;;;;5.60;1.50;;;16.00;99.90;;;;;;5048081;28;20516;-69
2022/10/24 11:17:44;;;;;;;4.65;1.42;;;16.00;99.90;;;;;;5047029;28;20102;-69
2022/10/24 11:20:31;;;;;;;5.75;1.20;;;16.00;99.90;;;;;;5046159;28;20496;-71
2022/10/24 11:23:32;;;;;;;8.20;1.75;;;16.10;99.90;;;;;;5046815;28;20036;-70
2022/10/24 11:26:02;;;;;;;6.40;1.20;;;16.10;99.90;;;;;;5037432;28;20041;-68
2022/10/24 11:28:42;;;;;;;4.57;1.35;;;16.10;99.90;;;;;;5043059;28;20043;-69
2022/10/24 11:31:36;;;;;;;6.22;1.23;;;16.10;99.90;;;;;;5035982;28;20458;-67
2022/10/24 11:34:18;;;;;;;7.45;1.70;;;16.20;99.90;;;;;;5027967;28;20038;-68
2022/10/24 11:37:08;;;;;;;10.43;1.20;;;16.20;99.90;;;;;;5038233;28;20772;-72
2022/10/24 11:39:47;;;;;;;;;;;16.30;99.90;;;;;;5048903;28;20453;-71
2022/10/24 11:42:47;;;;;;;12.02;1.70;;;16.40;99.90;;;;;;5045832;28;19976;-70
2022/10/24 11:45:16;;;;;;;9.10;1.73;;;16.50;99.90;;;;;;5028020;28;20061;-69
2022/10/24 11:48:12;;;;;;;7.13;1.23;;;16.60;99.90;;;;;;5042941;28;20098;-73
2022/10/24 11:50:58;;;;;;;14.70;1.52;;;16.70;99.90;;;;;;5045472;28;20029;-70
2022/10/24 11:53:30;;;;;;;7.60;1.80;;;16.90;99.90;;;;;;5046617;28;20498;-72
2022/10/24 11:56:18;;;;;;;12.80;1.52;;;17.00;99.90;;;;;;5046096;28;20039;-74
2022/10/24 11:58:52;;;;;;;6.00;1.40;;;16.90;99.90;;;;;;5047108;28;20124;-70
2022/10/24 12:01:39;;;;;;;9.32;1.30;;;16.90;99.90;;;;;;5046114;28;20029;-70
2022/10/24 12:04:23;;;;;;;4.63;1.25;;;16.90;99.90;;;;;;5044917;28;20052;-70
2022/10/24 12:07:01;;;;;;;8.85;1.48;;;16.90;99.90;;;;;;5048195;28;20059;-68
2022/10/24 12:09:42;;;;;;;4.95;1.17;;;16.80;99.90;;;;;;5044128;28;20029;-69
2022/10/24 12:12:08;;;;;;;7.45;0.98;;;16.80;99.90;;;;;;5042694;28;20056;-72
2022/10/24 12:14:54;;;;;;;4.60;1.25;;;16.80;99.90;;;;;;5046499;28;20431;-70
2022/10/24 12:17:40;;;;;;;7.50;1.10;;;16.80;99.90;;;;;;5045564;28;20064;-71
2022/10/24 12:20:12;;;;;;;3.53;1.20;;;16.80;99.90;;;;;;5043351;28;20021;-68
2022/10/24 12:22:42;;;;;;;8.27;1.30;;;16.80;99.90;;;;;;5045648;28;20055;-70
2022/10/24 12:25:13;;;;;;;4.97;0.93;;;16.80;99.90;;;;;;5046932;28;20021;-69
2022/10/24 12:27:40;;;;;;;4.38;1.20;;;16.90;99.90;;;;;;5043852;28;20107;-71
2022/10/24 12:30:09;;;;;;;4.05;1.30;;;16.90;99.90;;;;;;5036051;28;20418;-71
2022/10/24 12:32:38;;;;;;;4.90;1.40;;;16.80;99.90;;;;;;5048588;28;20036;-68
2022/10/24 12:35:26;;;;;;;5.45;1.10;;;16.80;99.90;;;;;;5039402;28;20037;-71
2022/10/24 12:37:56;;;;;;;6.85;1.00;;;16.80;99.90;;;;;;5048752;28;20033;-70
2022/10/24 12:40:46;;;;;;;4.97;0.90;;;16.80;99.90;;;;;;5043030;28;20033;-72
2022/10/24 12:43:33;;;;;;;4.32;1.05;;;16.70;99.90;;;;;;5050293;28;20033;-70
2022/10/24 12:46:14;;;;;;;3.78;0.88;;;16.70;99.90;;;;;;5048453;28;20044;-74
2022/10/24 12:48:41;;;;;;;9.68;0.93;;;16.80;99.90;;;;;;5039425;28;20128;-71
2022/10/24 12:51:37;;;;;;;6.60;1.20;;;16.80;99.90;;;;;;5050347;28;20033;-72
2022/10/24 12:54:12;;;;;;;6.13;1.55;;;16.70;99.90;;;;;;5046492;28;20033;-69
2022/10/24 12:56:50;;;;;;;7.80;1.40;;;16.70;99.90;;;;;;5043240;28;20033;-66
2022/10/24 12:59:16;;;;;;;7.10;1.20;;;16.70;99.90;;;;;;5046609;28;20128;-71
2022/10/24 13:01:42;;;;;;;2.88;0.90;;;16.70;99.90;;;;;;5043912;28;20494;-71
2022/10/24 13:04:27;;;;;;;3.58;1.00;;;16.80;99.90;;;;;;5050506;28;20032;-71